Time;durP1;ratioP1;P1;durP2;ratioP2;P2;SDS_P1;SDS_P2;PMS_P1;PMS_P2;Temp;Humidity;BMP_temperature;BMP_pressure;BME280_temperature;BME280_humidity;BME280_pressure;Samples;Min_cycle;Max_cycle;Signal;HPM_P1;HPM_P2
2021/04/05 00:02:19;;;;;;;9.27;5.40;;;4.40;93.30;;;;;;5057049;28;20248;-70
2021/04/05 00:04:46;;;;;;;9.83;4.87;;;4.40;93.40;;;;;;5053436;28;20209;-70
2021/04/05 00:07:12;;;;;;;8.47;5.53;;;4.40;93.40;;;;;;5059292;28;20238;-71
2021/04/05 00:09:41;;;;;;;6.50;4.87;;;4.40;93.50;;;;;;5057619;28;20206;-70
2021/04/05 00:12:08;;;;;;;10.00;5.67;;;4.40;93.60;;;;;;5062853;28;20212;-70
2021/04/05 00:14:35;;;;;;;7.77;5.13;;;4.30;93.70;;;;;;5052221;28;20229;-71
2021/04/05 00:17:01;;;;;;;9.30;5.07;;;4.40;94.10;;;;;;5054891;28;20273;-71
2021/04/05 00:19:27;;;;;;;11.23;5.70;;;4.40;93.90;;;;;;5057818;28;20216;-71
2021/04/05 00:21:54;;;;;;;9.80;5.87;;;4.40;94.10;;;;;;5060851;28;20217;-71
2021/04/05 00:24:20;;;;;;;10.03;5.70;;;4.40;94.00;;;;;;5055648;28;20715;-71
2021/04/05 00:26:47;;;;;;;10.30;6.33;;;4.40;94.10;;;;;;5061921;28;20292;-70
2021/04/05 00:29:14;;;;;;;9.80;5.37;;;4.40;94.30;;;;;;5063344;28;20292;-69
2021/04/05 00:31:40;;;;;;;8.37;5.43;;;4.30;94.30;;;;;;5060318;28;20230;-70
2021/04/05 00:34:07;;;;;;;10.47;6.00;;;4.30;94.30;;;;;;5058167;28;20206;-70
2021/04/05 00:36:33;;;;;;;13.37;6.13;;;4.30;94.50;;;;;;5060465;28;20246;-70
2021/04/05 00:38:59;;;;;;;7.13;5.00;;;4.40;94.60;;;;;;5060095;28;20293;-71
2021/04/05 00:41:28;;;;;;;10.40;5.50;;;4.40;94.70;;;;;;5062590;28;20232;-71
2021/04/05 00:43:55;;;;;;;10.03;5.63;;;4.30;94.70;;;;;;5059905;28;20225;-70
2021/04/05 00:46:23;;;;;;;9.30;6.10;;;4.40;94.80;;;;;;5060412;28;20639;-71
2021/04/05 00:48:50;;;;;;;8.23;5.30;;;4.40;94.80;;;;;;5056563;28;20289;-70
2021/04/05 00:51:19;;;;;;;8.60;5.67;;;4.40;94.80;;;;;;5054100;28;20285;-71
2021/04/05 00:53:47;;;;;;;11.87;5.60;;;4.30;94.90;;;;;;5056165;28;20202;-71
2021/04/05 00:56:14;;;;;;;7.83;5.10;;;4.30;94.90;;;;;;5062402;28;20205;-69
2021/04/05 00:58:43;;;;;;;11.53;6.20;;;4.30;95.00;;;;;;5054770;28;20296;-69
2021/04/05 01:01:13;;;;;;;8.67;5.50;;;4.30;95.10;;;;;;5054854;28;20243;-69
2021/04/05 01:03:40;;;;;;;8.53;6.17;;;4.40;95.20;;;;;;5056394;28;20289;-70
2021/04/05 01:06:11;;;;;;;11.43;5.67;;;4.30;95.20;;;;;;5059817;28;20228;-72
2021/04/05 01:08:38;;;;;;;9.37;5.73;;;4.30;95.20;;;;;;5053251;28;20202;-71
2021/04/05 01:11:05;;;;;;;9.10;5.50;;;4.40;95.20;;;;;;5061059;28;20233;-70
2021/04/05 01:13:32;;;;;;;11.00;6.00;;;4.30;95.10;;;;;;5052173;28;20254;-70
2021/04/05 01:15:58;;;;;;;8.97;5.83;;;4.30;95.10;;;;;;5055471;28;20202;-70
2021/04/05 01:18:27;;;;;;;10.73;6.00;;;4.40;95.10;;;;;;5059042;28;20202;-70
2021/04/05 01:20:54;;;;;;;11.93;6.40;;;4.30;95.00;;;;;;5058001;28;20368;-70
2021/04/05 01:23:22;;;;;;;10.17;5.80;;;4.30;95.00;;;;;;5058334;28;20220;-70
2021/04/05 01:25:48;;;;;;;10.67;5.70;;;4.30;95.00;;;;;;5056420;28;20201;-70
2021/04/05 01:28:15;;;;;;;9.97;6.23;;;4.30;95.10;;;;;;5053441;28;20674;-70
2021/04/05 01:30:44;;;;;;;10.37;6.03;;;4.30;95.10;;;;;;5054096;28;20305;-69
2021/04/05 01:33:12;;;;;;;9.97;5.77;;;4.30;95.20;;;;;;5057388;28;20208;-71
2021/04/05 01:35:42;;;;;;;10.50;6.13;;;4.30;95.20;;;;;;5057944;28;20206;-71
2021/04/05 01:38:10;;;;;;;13.63;6.63;;;4.30;95.50;;;;;;5053378;28;20207;-70
2021/04/05 01:40:40;;;;;;;9.37;5.50;;;4.30;95.20;;;;;;5052871;28;20641;-71
2021/04/05 01:43:07;;;;;;;11.23;6.40;;;4.20;95.20;;;;;;5052679;28;20206;-69
2021/04/05 01:45:33;;;;;;;10.50;6.07;;;4.20;95.40;;;;;;5057131;28;20206;-70
2021/04/05 01:48:00;;;;;;;9.53;6.13;;;4.20;95.40;;;;;;5064229;28;20205;-70
2021/04/05 01:50:26;;;;;;;9.33;6.33;;;4.20;95.50;;;;;;5053616;28;20214;-69
2021/04/05 01:52:53;;;;;;;11.97;6.40;;;4.20;95.70;;;;;;5059538;28;20198;-70
2021/04/05 01:55:20;;;;;;;9.80;6.57;;;4.20;95.70;;;;;;5055878;28;20202;-71
2021/04/05 01:57:49;;;;;;;9.30;5.83;;;4.20;95.80;;;;;;5060406;28;20685;-70
2021/04/05 02:00:21;;;;;;;10.17;5.97;;;4.20;95.80;;;;;;5057523;28;20194;-70
2021/04/05 02:02:48;;;;;;;11.77;6.67;;;4.20;95.80;;;;;;5054142;28;20198;-69
2021/04/05 02:05:16;;;;;;;12.90;6.70;;;4.20;95.70;;;;;;5053444;28;20202;-70
2021/04/05 02:07:43;;;;;;;13.77;7.10;;;4.20;95.80;;;;;;5056035;28;20256;-71
2021/04/05 02:10:11;;;;;;;10.43;6.70;;;4.10;95.90;;;;;;5053461;28;20301;-70
2021/04/05 02:12:38;;;;;;;10.47;6.10;;;4.10;96.00;;;;;;5055387;28;20236;-70
2021/04/05 02:15:10;;;;;;;11.60;6.90;;;4.10;96.00;;;;;;5058942;28;20333;-70
2021/04/05 02:17:36;;;;;;;12.07;7.00;;;4.00;96.10;;;;;;5057949;28;20255;-71
2021/04/05 02:20:06;;;;;;;11.53;6.90;;;4.00;96.30;;;;;;5057062;28;20693;-71
2021/04/05 02:22:33;;;;;;;11.10;7.13;;;4.00;96.30;;;;;;5053177;28;20773;-69
2021/04/05 02:24:59;;;;;;;12.87;7.17;;;4.00;96.40;;;;;;5057947;28;20208;-71
2021/04/05 02:27:26;;;;;;;12.43;7.80;;;4.00;96.50;;;;;;5058610;28;20214;-69
2021/04/05 02:29:53;;;;;;;11.10;7.03;;;4.00;96.50;;;;;;5058523;28;20202;-70
2021/04/05 02:32:20;;;;;;;12.43;6.73;;;4.00;96.60;;;;;;5058791;28;20219;-70
2021/04/05 02:34:47;;;;;;;10.43;7.00;;;3.90;96.60;;;;;;5054672;28;20228;-70
2021/04/05 02:37:14;;;;;;;10.33;6.90;;;3.90;96.70;;;;;;5056680;28;20665;-69
2021/04/05 02:39:40;;;;;;;11.90;6.40;;;3.90;96.80;;;;;;5053342;28;20202;-69
2021/04/05 02:42:08;;;;;;;10.67;6.70;;;3.90;96.90;;;;;;5057253;28;20256;-71
2021/04/05 02:44:36;;;;;;;10.93;6.90;;;3.90;97.10;;;;;;5057532;28;20210;-70
2021/04/05 02:47:03;;;;;;;11.47;7.13;;;3.80;97.20;;;;;;5053824;28;20206;-71
2021/04/05 02:49:31;;;;;;;12.20;6.53;;;3.80;97.20;;;;;;5050519;28;20202;-70
2021/04/05 02:51:58;;;;;;;11.93;6.87;;;3.80;97.40;;;;;;5053836;28;20212;-71
2021/04/05 02:54:25;;;;;;;12.80;7.43;;;3.70;97.60;;;;;;5061488;28;20216;-71
2021/04/05 02:56:52;;;;;;;14.33;7.40;;;3.70;97.80;;;;;;5054664;28;20209;-71
2021/04/05 02:59:20;;;;;;;13.27;7.37;;;3.70;98.00;;;;;;5054672;28;20212;-71
2021/04/05 03:01:47;;;;;;;10.70;6.50;;;3.70;98.10;;;;;;5058833;28;20218;-69
2021/04/05 03:04:14;;;;;;;12.17;7.07;;;3.60;98.20;;;;;;5057447;28;20206;-71
2021/04/05 03:06:42;;;;;;;11.80;7.07;;;3.60;98.20;;;;;;5057788;28;20205;-71
2021/04/05 03:09:08;;;;;;;14.13;7.53;;;3.60;98.50;;;;;;5057198;28;20324;-70
2021/04/05 03:11:37;;;;;;;16.07;7.07;;;3.50;98.80;;;;;;5053660;28;20209;-71
2021/04/05 03:14:05;;;;;;;12.10;7.07;;;3.50;98.90;;;;;;5053375;28;20284;-71
2021/04/05 03:16:32;;;;;;;13.20;7.70;;;3.50;99.20;;;;;;5050641;28;20409;-69
2021/04/05 03:19:02;;;;;;;13.83;7.40;;;3.50;99.40;;;;;;5053902;28;20568;-71
2021/04/05 03:21:30;;;;;;;13.27;7.73;;;3.40;99.60;;;;;;5059732;28;20562;-71
2021/04/05 03:24:00;;;;;;;14.80;7.90;;;3.50;99.70;;;;;;5062775;28;20205;-71
2021/04/05 03:26:26;;;;;;;13.30;6.60;;;3.50;99.80;;;;;;5055057;28;20220;-69
2021/04/05 03:28:52;;;;;;;11.37;6.63;;;3.50;99.90;;;;;;5053755;28;20234;-71
2021/04/05 03:31:21;;;;;;;11.93;7.43;;;3.40;99.90;;;;;;5058786;28;20198;-70
2021/04/05 03:33:52;;;;;;;11.80;7.50;;;3.40;99.90;;;;;;5061246;28;20202;-70
2021/04/05 03:36:22;;;;;;;13.50;8.10;;;3.40;99.90;;;;;;5056914;28;20524;-69
2021/04/05 03:38:48;;;;;;;15.43;8.00;;;3.40;99.90;;;;;;5057436;28;20209;-72
2021/04/05 03:41:27;;;;;;;12.33;7.43;;;3.40;99.90;;;;;;5061717;28;20282;-71
2021/04/05 03:43:58;;;;;;;10.77;7.07;;;3.40;99.90;;;;;;5056409;28;20201;-70
2021/04/05 03:46:30;;;;;;;13.77;8.13;;;3.40;99.90;;;;;;5057402;28;20201;-70
2021/04/05 03:49:05;;;;;;;14.53;8.40;;;3.40;99.90;;;;;;5056714;28;20256;-72
2021/04/05 03:51:37;;;;;;;15.07;8.03;;;3.40;99.90;;;;;;5056316;28;20668;-69
2021/04/05 03:54:08;;;;;;;13.20;7.63;;;3.30;99.90;;;;;;5058765;28;20205;-70
2021/04/05 03:56:42;;;;;;;14.50;8.40;;;3.30;99.90;;;;;;5057815;28;20272;-70
2021/04/05 03:59:12;;;;;;;11.27;7.43;;;3.30;99.90;;;;;;5059019;28;20233;-70
2021/04/05 04:01:45;;;;;;;12.43;7.60;;;3.30;99.90;;;;;;5059227;28;20580;-70
2021/04/05 04:04:15;;;;;;;15.33;8.17;;;3.30;99.90;;;;;;5050196;28;20672;-70
2021/04/05 04:06:50;;;;;;;16.70;8.20;;;3.30;99.90;;;;;;5058997;28;20201;-69
2021/04/05 04:09:18;;;;;;;16.13;8.57;;;3.30;99.90;;;;;;5054800;28;20302;-69
2021/04/05 04:11:50;;;;;;;17.10;8.03;;;3.30;99.90;;;;;;5055591;28;21388;-69
2021/04/05 04:14:18;;;;;;;12.60;8.10;;;3.30;99.90;;;;;;5056168;28;20245;-69
2021/04/05 04:16:45;;;;;;;16.70;8.70;;;3.30;99.90;;;;;;5060129;28;20293;-70
2021/04/05 04:19:13;;;;;;;16.47;8.60;;;3.30;99.90;;;;;;5061900;28;20236;-69
2021/04/05 04:21:44;;;;;;;15.57;8.07;;;3.40;99.90;;;;;;5055951;28;20228;-69
2021/04/05 04:24:11;;;;;;;14.60;8.43;;;3.40;99.90;;;;;;5050916;28;20222;-70
2021/04/05 04:26:37;;;;;;;15.47;8.47;;;3.40;99.90;;;;;;5052952;28;20198;-70
2021/04/05 04:29:05;;;;;;;14.00;8.43;;;3.40;99.90;;;;;;5059575;28;20210;-70
2021/04/05 04:31:31;;;;;;;15.20;9.03;;;3.40;99.90;;;;;;5055867;28;20208;-69
2021/04/05 04:33:58;;;;;;;16.03;9.10;;;3.40;99.90;;;;;;5054476;28;20643;-70
2021/04/05 04:36:25;;;;;;;15.80;8.30;;;3.40;99.90;;;;;;5055822;28;20327;-69
2021/04/05 04:38:53;;;;;;;15.97;9.37;;;3.40;99.90;;;;;;5052043;28;20293;-70
2021/04/05 04:41:23;;;;;;;17.87;10.23;;;3.40;99.90;;;;;;5060000;28;20225;-69
2021/04/05 04:43:55;;;;;;;18.77;9.13;;;3.50;99.90;;;;;;5057384;28;20207;-69
2021/04/05 04:46:22;;;;;;;16.43;10.03;;;3.50;99.90;;;;;;5056222;28;20655;-70
2021/04/05 04:48:53;;;;;;;17.60;9.67;;;3.40;99.90;;;;;;5055009;28;20292;-70
2021/04/05 04:51:20;;;;;;;12.27;8.13;;;3.40;99.90;;;;;;5058323;28;20569;-70
2021/04/05 04:53:46;;;;;;;16.43;9.43;;;3.40;99.90;;;;;;5054211;28;20205;-69
2021/04/05 04:56:14;;;;;;;18.50;9.20;;;3.50;99.90;;;;;;5052605;28;20210;-69
2021/04/05 04:58:41;;;;;;;14.70;9.43;;;3.50;99.90;;;;;;5050938;28;20293;-70
2021/04/05 05:01:07;;;;;;;15.53;9.20;;;3.60;99.90;;;;;;5051622;28;20313;-69
2021/04/05 05:03:36;;;;;;;16.60;9.87;;;3.70;99.90;;;;;;5055234;28;20236;-68
2021/04/05 05:06:05;;;;;;;15.23;9.13;;;3.70;99.90;;;;;;5059084;28;20214;-69
2021/04/05 05:08:32;;;;;;;17.97;9.37;;;3.80;99.90;;;;;;5054963;28;20284;-69
2021/04/05 05:10:59;;;;;;;16.37;9.60;;;3.80;99.90;;;;;;5058815;28;20197;-69
2021/04/05 05:13:26;;;;;;;16.23;9.97;;;3.90;99.90;;;;;;5053581;28;20246;-70
2021/04/05 05:15:53;;;;;;;20.37;9.33;;;4.00;99.90;;;;;;5059657;28;20239;-69
2021/04/05 05:18:19;;;;;;;17.63;10.13;;;4.00;99.90;;;;;;5054371;28;20673;-70
2021/04/05 05:20:47;;;;;;;16.93;9.73;;;4.10;99.90;;;;;;5054607;28;20273;-69
2021/04/05 05:23:18;;;;;;;16.37;9.93;;;4.10;99.90;;;;;;5057188;28;20202;-69
2021/04/05 05:25:46;;;;;;;18.07;10.07;;;4.20;99.90;;;;;;5057104;28;20198;-69
2021/04/05 05:28:17;;;;;;;17.70;9.87;;;4.30;99.90;;;;;;5054632;28;20205;-70
2021/04/05 05:30:43;;;;;;;18.23;10.17;;;4.30;99.90;;;;;;5053902;28;20289;-69
2021/04/05 05:33:10;;;;;;;17.60;10.40;;;4.30;99.80;;;;;;5048091;28;20206;-71
2021/04/05 05:35:37;;;;;;;19.23;10.80;;;4.40;99.70;;;;;;5053937;28;20214;-71
2021/04/05 05:38:06;;;;;;;16.97;10.13;;;4.50;99.30;;;;;;5058465;28;20206;-70
2021/04/05 05:40:33;;;;;;;16.77;9.90;;;4.50;98.60;;;;;;5054985;28;20270;-70
2021/04/05 05:43:09;;;;;;;16.40;10.00;;;4.50;98.50;;;;;;5053139;28;20213;-69
2021/04/05 05:45:42;;;;;;;18.27;10.33;;;4.60;98.40;;;;;;5052129;28;20212;-69
2021/04/05 05:48:18;;;;;;;15.53;10.10;;;4.70;98.10;;;;;;5059464;28;20665;-68
2021/04/05 05:50:53;;;;;;;20.50;10.00;;;4.80;97.60;;;;;;5054462;28;20613;-70
2021/04/05 05:53:38;;;;;;;20.57;10.17;;;4.80;96.90;;;;;;5054595;28;20260;-70
2021/04/05 05:56:32;;;;;;;14.60;9.70;;;4.90;96.20;;;;;;5055495;28;20202;-69
2021/04/05 05:59:06;;;;;;;16.77;10.20;;;4.90;95.50;;;;;;5051795;28;20203;-71
2021/04/05 06:01:46;;;;;;;15.23;9.57;;;5.00;95.20;;;;;;5057012;28;20249;-71
2021/04/05 06:04:24;;;;;;;17.93;9.70;;;5.10;94.80;;;;;;5053630;28;20217;-70
2021/04/05 06:06:59;;;;;;;14.13;8.87;;;5.10;94.70;;;;;;5052879;28;20710;-70
2021/04/05 06:09:39;;;;;;;15.73;9.20;;;5.30;94.50;;;;;;5051888;28;20231;-70
2021/04/05 06:12:10;;;;;;;16.47;9.27;;;5.40;94.30;;;;;;5058722;28;20235;-70
2021/04/05 06:14:47;;;;;;;17.83;9.70;;;5.50;93.90;;;;;;5049669;28;20234;-69
2021/04/05 06:17:22;;;;;;;17.37;9.43;;;5.70;93.60;;;;;;5051125;28;20209;-70
2021/04/05 06:19:51;;;;;;;16.00;9.03;;;5.80;93.20;;;;;;5053378;28;20202;-69
2021/04/05 06:22:33;;;;;;;18.30;9.73;;;5.90;92.90;;;;;;5053466;28;20341;-68
2021/04/05 06:25:07;;;;;;;15.37;9.20;;;6.00;92.30;;;;;;5050233;28;20260;-69
2021/04/05 06:27:42;;;;;;;15.87;9.03;;;6.10;92.00;;;;;;5050475;28;20565;-68
2021/04/05 06:30:17;;;;;;;15.50;8.83;;;6.30;91.70;;;;;;5049790;28;20203;-67
2021/04/05 06:32:54;;;;;;;17.77;9.97;;;6.50;91.40;;;;;;5049630;28;20194;-68
2021/04/05 06:35:54;;;;;;;15.10;9.37;;;6.60;91.00;;;;;;5047131;28;20201;-68
2021/04/05 06:38:24;;;;;;;15.90;9.20;;;6.70;90.50;;;;;;5054418;28;20212;-68
2021/04/05 06:40:55;;;;;;;17.40;8.93;;;6.80;90.10;;;;;;5051981;28;20212;-68
2021/04/05 06:43:41;;;;;;;15.20;9.17;;;6.90;89.50;;;;;;5055078;28;20202;-68
2021/04/05 06:46:21;;;;;;;18.00;9.00;;;7.00;87.90;;;;;;5050774;28;20210;-71
2021/04/05 06:49:06;;;;;;;17.23;9.07;;;7.20;87.70;;;;;;5052467;28;20292;-69
2021/04/05 06:52:01;;;;;;;18.73;9.20;;;7.30;86.60;;;;;;5056011;28;20661;-68
2021/04/05 06:54:46;;;;;;;16.67;9.70;;;7.40;85.20;;;;;;5054917;28;20240;-70
2021/04/05 06:57:15;;;;;;;14.67;8.73;;;7.50;84.20;;;;;;5055296;28;20696;-72
2021/04/05 06:59:56;;;;;;;14.67;8.93;;;7.50;83.50;;;;;;5055576;28;20231;-70
2021/04/05 07:03:13;;;;;;;13.17;8.90;;;7.60;82.50;;;;;;5051386;28;20225;-71
2021/04/05 07:05:55;;;;;;;15.13;8.97;;;7.70;82.20;;;;;;5050887;28;20577;-71
2021/04/05 07:08:27;;;;;;;13.73;8.83;;;7.90;81.40;;;;;;5051441;28;20655;-69
2021/04/05 07:11:13;;;;;;;15.67;8.80;;;8.00;81.10;;;;;;5053849;28;20206;-68
2021/04/05 07:13:54;;;;;;;13.03;8.17;;;8.20;80.50;;;;;;5049367;28;20755;-70
2021/04/05 07:16:30;;;;;;;14.03;8.70;;;8.40;79.10;;;;;;5057032;28;20212;-69
2021/04/05 07:19:08;;;;;;;16.90;8.93;;;8.60;78.50;;;;;;5059464;28;20994;-69
2021/04/05 07:21:43;;;;;;;14.60;8.60;;;8.70;77.50;;;;;;5056816;28;20239;-70
2021/04/05 07:24:24;;;;;;;12.27;8.00;;;8.90;76.20;;;;;;5052681;28;20247;-68
2021/04/05 07:27:01;;;;;;;14.97;7.90;;;9.10;75.60;;;;;;5059625;28;20212;-69
2021/04/05 07:29:37;;;;;;;14.20;8.40;;;9.20;74.00;;;;;;5054943;28;20288;-71
2021/04/05 07:32:10;;;;;;;15.80;8.00;;;9.40;73.30;;;;;;5054068;28;20209;-70
2021/04/05 07:34:48;;;;;;;12.13;7.93;;;9.50;72.50;;;;;;5051970;28;20607;-69
2021/04/05 07:37:27;;;;;;;14.23;7.73;;;9.50;71.10;;;;;;5052220;28;20573;-70
2021/04/05 07:40:05;;;;;;;14.70;7.73;;;9.60;71.10;;;;;;5054884;28;20555;-70
2021/04/05 07:42:38;;;;;;;9.47;6.90;;;9.80;70.70;;;;;;5049044;28;20214;-68
2021/04/05 07:45:08;;;;;;;12.63;7.33;;;9.90;69.30;;;;;;5051683;28;20674;-70
2021/04/05 07:47:41;;;;;;;11.70;6.87;;;10.10;67.40;;;;;;5054665;28;20209;-70
2021/04/05 07:50:13;;;;;;;9.97;6.40;;;10.30;65.90;;;;;;5057580;28;20206;-72
2021/04/05 07:52:47;;;;;;;9.00;6.43;;;10.50;64.30;;;;;;5060502;28;20685;-70
2021/04/05 07:55:14;;;;;;;9.30;5.70;;;10.60;62.70;;;;;;5060161;28;20205;-70
2021/04/05 07:57:56;;;;;;;9.83;5.87;;;10.70;60.70;;;;;;5059996;28;20205;-69
2021/04/05 08:00:30;;;;;;;14.13;6.43;;;10.80;59.70;;;;;;5051340;28;20198;-71
2021/04/05 08:03:05;;;;;;;11.27;4.97;;;10.80;58.50;;;;;;5050513;28;20603;-66
2021/04/05 08:05:43;;;;;;;9.00;5.93;;;11.00;57.90;;;;;;5055333;28;20632;-72
2021/04/05 08:08:36;;;;;;;13.83;5.90;;;11.20;57.10;;;;;;5050680;28;20202;-71
2021/04/05 08:11:14;;;;;;;10.47;5.87;;;11.40;55.40;;;;;;5054369;28;20722;-71
2021/04/05 08:13:49;;;;;;;8.87;5.20;;;11.60;54.50;;;;;;5051673;28;20581;-73
2021/04/05 08:16:25;;;;;;;7.87;5.53;;;11.80;53.60;;;;;;5050193;28;20673;-74
2021/04/05 08:18:56;;;;;;;7.27;5.33;;;11.90;53.10;;;;;;5055946;28;20227;-73
2021/04/05 08:21:29;;;;;;;7.33;5.17;;;12.10;52.50;;;;;;5053297;28;20333;-72
2021/04/05 08:24:09;;;;;;;7.77;5.67;;;12.30;51.90;;;;;;5051168;28;20218;-75
2021/04/05 08:26:41;;;;;;;8.57;5.40;;;12.30;50.30;;;;;;5055467;28;20656;-74
2021/04/05 08:29:13;;;;;;;7.27;4.37;;;12.30;50.10;;;;;;5057761;28;20667;-74
2021/04/05 08:32:10;;;;;;;7.87;5.00;;;12.40;50.40;;;;;;5055582;28;20198;-73
2021/04/05 08:35:02;;;;;;;8.03;5.10;;;12.60;50.20;;;;;;5053179;28;20202;-72
2021/04/05 08:37:40;;;;;;;8.37;4.63;;;12.90;49.90;;;;;;5054206;28;20325;-73
2021/04/05 08:40:11;;;;;;;9.27;5.17;;;13.10;49.10;;;;;;5056710;28;20232;-74
2021/04/05 08:42:54;;;;;;;9.63;5.13;;;13.10;48.60;;;;;;5055612;28;20679;-73
2021/04/05 08:45:24;;;;;;;7.47;5.30;;;13.20;48.70;;;;;;5056357;28;20204;-77
2021/04/05 08:47:57;;;;;;;7.80;5.07;;;13.20;48.40;;;;;;5062118;28;20292;-77
2021/04/05 08:50:28;;;;;;;10.17;5.47;;;13.30;49.10;;;;;;5061791;28;20285;-77
2021/04/05 08:52:56;;;;;;;9.40;4.77;;;13.30;49.30;;;;;;5057061;28;20294;-74
2021/04/05 08:55:26;;;;;;;8.90;5.40;;;13.30;48.60;;;;;;5061281;28;20298;-76
2021/04/05 08:57:59;;;;;;;9.90;5.47;;;13.30;48.30;;;;;;5065550;28;20410;-76
2021/04/05 09:00:26;;;;;;;8.90;4.97;;;13.30;48.30;;;;;;5070631;28;20228;-76
2021/04/05 09:02:57;;;;;;;7.73;5.10;;;13.30;48.50;;;;;;5069858;28;20245;-76
2021/04/05 09:05:26;;;;;;;6.27;4.80;;;13.40;49.20;;;;;;5073503;28;20198;-76
2021/04/05 09:08:01;;;;;;;8.57;5.03;;;13.60;48.60;;;;;;5075843;28;20210;-76
2021/04/05 09:10:31;;;;;;;7.37;4.73;;;13.80;48.00;;;;;;5066885;28;20232;-77
2021/04/05 09:12:59;;;;;;;9.10;4.97;;;13.70;47.40;;;;;;5073188;28;20261;-76
2021/04/05 09:16:01;;;;;;;7.73;5.13;;;13.60;47.60;;;;;;5069824;28;20225;-76
2021/04/05 09:18:55;;;;;;;10.87;5.33;;;13.50;47.70;;;;;;5069311;28;20246;-76
2021/04/05 09:21:38;;;;;;;9.63;5.00;;;13.40;48.20;;;;;;5070769;28;20213;-76
2021/04/05 09:24:45;;;;;;;8.50;5.13;;;13.40;48.60;;;;;;5068935;28;20292;-76
2021/04/05 09:27:32;;;;;;;9.17;4.60;;;13.40;48.50;;;;;;5065618;28;20225;-76
2021/04/05 09:30:30;;;;;;;10.07;5.33;;;13.30;48.60;;;;;;5057841;28;20209;-76
2021/04/05 09:33:21;;;;;;;9.77;4.97;;;13.20;48.80;;;;;;5061023;28;20225;-76
2021/04/05 09:36:07;;;;;;;8.37;4.87;;;13.30;49.20;;;;;;5057089;28;20228;-76
2021/04/05 09:38:52;;;;;;;9.13;5.07;;;13.30;49.20;;;;;;5051462;28;20202;-76
2021/04/05 09:41:46;;;;;;;12.43;5.47;;;13.30;49.20;;;;;;5054303;28;20600;-77
2021/04/05 09:44:33;;;;;;;7.77;5.10;;;13.30;48.20;;;;;;5055219;28;20244;-77
2021/04/05 09:47:31;;;;;;;8.03;4.97;;;13.10;48.40;;;;;;5054466;28;20202;-76
2021/04/05 09:50:25;;;;;;;5.80;4.47;;;13.00;49.00;;;;;;5049349;28;20715;-76
2021/04/05 09:53:08;;;;;;;8.07;4.27;;;13.00;49.00;;;;;;5055823;28;20206;-77
2021/04/05 09:55:38;;;;;;;6.60;4.43;;;13.00;49.00;;;;;;5053135;28;20206;-76
2021/04/05 09:58:08;;;;;;;6.73;5.03;;;12.90;48.90;;;;;;5050504;28;20241;-75
2021/04/05 10:00:36;;;;;;;6.40;4.50;;;12.90;48.90;;;;;;5051315;28;20296;-75
2021/04/05 10:03:06;;;;;;;9.00;4.70;;;12.90;49.20;;;;;;5047530;28;20286;-75
2021/04/05 10:05:35;;;;;;;7.60;4.50;;;12.90;49.10;;;;;;5056308;28;20283;-76
2021/04/05 10:08:03;;;;;;;7.27;4.60;;;13.20;49.70;;;;;;5053602;28;20634;-76
2021/04/05 10:10:35;;;;;;;9.37;4.87;;;13.40;48.70;;;;;;5049627;28;20217;-76
2021/04/05 10:13:06;;;;;;;7.90;4.83;;;13.60;49.10;;;;;;5035855;28;644527;-73
2021/04/05 10:15:33;;;;;;;9.00;5.00;;;13.90;48.70;;;;;;5048823;28;20245;-74
2021/04/05 10:18:01;;;;;;;9.57;4.83;;;14.10;47.70;;;;;;5047614;28;20699;-74
2021/04/05 10:20:29;;;;;;;7.83;4.67;;;14.30;47.60;;;;;;5049401;28;20270;-76
2021/04/05 10:22:58;;;;;;;7.63;4.63;;;14.60;47.10;;;;;;5054797;28;20642;-75
2021/04/05 10:25:27;;;;;;;6.37;4.10;;;14.60;46.80;;;;;;5048074;28;20608;-75
2021/04/05 10:27:55;;;;;;;9.07;4.33;;;14.70;46.70;;;;;;5050917;28;20247;-74
2021/04/05 10:30:31;;;;;;;8.47;4.60;;;14.60;46.00;;;;;;5058401;28;20205;-76
2021/04/05 10:33:02;;;;;;;6.27;4.60;;;14.50;45.80;;;;;;5052555;28;20240;-74
2021/04/05 10:35:32;;;;;;;6.37;4.03;;;14.20;46.20;;;;;;5052208;28;20201;-75
2021/04/05 10:38:02;;;;;;;5.97;4.20;;;13.90;46.70;;;;;;5050806;28;20263;-76
2021/04/05 10:40:29;;;;;;;5.47;4.40;;;13.70;47.40;;;;;;5049282;28;20273;-72
2021/04/05 10:43:07;;;;;;;8.27;4.67;;;13.60;48.00;;;;;;5054066;28;20292;-75
2021/04/05 10:45:37;;;;;;;8.13;4.37;;;13.70;48.40;;;;;;5049870;28;20239;-73
2021/04/05 10:48:07;;;;;;;7.27;4.27;;;13.70;48.10;;;;;;5053224;28;20205;-75
2021/04/05 10:50:37;;;;;;;5.73;3.67;;;13.60;47.70;;;;;;5052857;28;20240;-74
2021/04/05 10:53:07;;;;;;;6.63;4.63;;;13.60;47.80;;;;;;5052263;28;20236;-72
2021/04/05 10:55:39;;;;;;;5.63;4.03;;;13.50;47.60;;;;;;5051496;28;20213;-74
2021/04/05 10:58:10;;;;;;;7.13;4.23;;;13.40;47.80;;;;;;5051592;28;20208;-72
2021/04/05 11:00:39;;;;;;;6.17;4.17;;;13.40;47.90;;;;;;5049052;28;20209;-74
2021/04/05 11:03:13;;;;;;;5.33;3.90;;;13.30;48.20;;;;;;5053248;28;20230;-74
2021/04/05 11:05:43;;;;;;;7.93;4.07;;;13.30;48.40;;;;;;5050430;28;20209;-73
2021/04/05 11:08:15;;;;;;;6.10;4.03;;;13.30;48.30;;;;;;5052659;28;20565;-73
2021/04/05 11:10:44;;;;;;;7.00;4.10;;;13.20;48.10;;;;;;5052696;28;20769;-74
2021/04/05 11:13:13;;;;;;;6.90;3.63;;;13.10;48.00;;;;;;5055232;28;20230;-73
2021/04/05 11:15:42;;;;;;;8.60;3.87;;;13.00;47.90;;;;;;5051847;28;20201;-72
2021/04/05 11:18:11;;;;;;;6.60;4.13;;;13.10;48.10;;;;;;5050987;28;20296;-67
2021/04/05 11:20:40;;;;;;;5.97;4.17;;;13.10;48.30;;;;;;5050291;28;20202;-69
2021/04/05 11:23:10;;;;;;;9.80;4.03;;;13.20;48.50;;;;;;5048473;28;20226;-70
2021/04/05 11:25:39;;;;;;;7.60;4.27;;;13.30;48.40;;;;;;5050233;28;20206;-72
2021/04/05 11:28:15;;;;;;;6.07;3.47;;;13.30;48.30;;;;;;5050812;28;20669;-70
2021/04/05 11:30:42;;;;;;;6.17;3.60;;;13.50;48.20;;;;;;5050703;28;20211;-71
2021/04/05 11:33:11;;;;;;;5.77;3.80;;;13.50;47.90;;;;;;5050989;28;20580;-70
2021/04/05 11:35:40;;;;;;;6.17;3.83;;;13.50;48.20;;;;;;5054579;28;20216;-69
2021/04/05 11:38:11;;;;;;;8.00;4.07;;;13.50;49.00;;;;;;5052008;28;20217;-71
2021/04/05 11:40:39;;;;;;;8.33;3.47;;;13.40;48.30;;;;;;5051618;28;20202;-70
2021/04/05 11:43:17;;;;;;;7.50;3.60;;;13.30;48.30;;;;;;5057474;28;20868;-71
2021/04/05 11:45:47;;;;;;;8.23;3.70;;;13.30;48.60;;;;;;5053202;28;20521;-70
2021/04/05 11:48:18;;;;;;;11.30;4.20;;;13.20;48.70;;;;;;5052848;28;20293;-71
2021/04/05 11:50:45;;;;;;;8.23;4.13;;;13.10;48.90;;;;;;5051132;28;20202;-71
2021/04/05 11:53:22;;;;;;;8.20;3.63;;;13.00;49.00;;;;;;5056341;28;20292;-73
2021/04/05 11:55:58;;;;;;;8.23;3.80;;;13.00;49.20;;;;;;5057142;28;20212;-70
2021/04/05 11:58:30;;;;;;;7.53;3.80;;;13.00;49.30;;;;;;5045318;28;20206;-70
2021/04/05 12:01:01;;;;;;;7.10;3.53;;;12.90;49.30;;;;;;5045295;28;20258;-70
2021/04/05 12:03:33;;;;;;;7.47;3.70;;;12.80;49.50;;;;;;5049745;28;20663;-73
2021/04/05 12:06:06;;;;;;;5.97;3.60;;;12.80;49.40;;;;;;5055709;28;20233;-69
2021/04/05 12:08:38;;;;;;;9.57;4.13;;;12.90;49.60;;;;;;5057411;28;20568;-70
2021/04/05 12:11:06;;;;;;;12.03;4.23;;;13.00;49.50;;;;;;5055213;28;20336;-71
2021/04/05 12:13:41;;;;;;;5.00;3.57;;;13.00;49.50;;;;;;5055013;28;20241;-71
2021/04/05 12:16:08;;;;;;;8.70;3.50;;;13.10;49.80;;;;;;5058401;28;20229;-72
2021/04/05 12:18:36;;;;;;;7.27;3.67;;;13.10;49.70;;;;;;5050451;28;20321;-72
2021/04/05 12:21:05;;;;;;;8.10;3.90;;;13.10;49.50;;;;;;5052253;28;20205;-72
2021/04/05 12:23:32;;;;;;;6.73;3.90;;;13.10;49.60;;;;;;5057237;28;20700;-73
2021/04/05 12:25:59;;;;;;;5.50;3.17;;;13.20;49.50;;;;;;5053515;28;20216;-72
2021/04/05 12:28:35;;;;;;;12.67;4.80;;;13.20;49.50;;;;;;5058645;28;20206;-73
2021/04/05 12:31:02;;;;;;;8.03;4.00;;;13.30;49.30;;;;;;5062994;28;20225;-74
2021/04/05 12:33:33;;;;;;;8.87;3.60;;;13.30;49.30;;;;;;5052564;28;20212;-73
2021/04/05 12:36:00;;;;;;;15.00;5.23;;;13.40;49.30;;;;;;5057894;28;20208;-72
2021/04/05 12:38:28;;;;;;;6.80;3.73;;;13.40;49.30;;;;;;5054887;28;20202;-71
2021/04/05 12:40:56;;;;;;;10.87;4.13;;;13.50;49.40;;;;;;5049151;28;20206;-72
2021/04/05 12:43:28;;;;;;;7.00;3.67;;;13.60;48.90;;;;;;5054328;28;20319;-73
2021/04/05 12:45:57;;;;;;;9.60;3.67;;;13.60;49.60;;;;;;5047899;28;20206;-72
2021/04/05 12:48:26;;;;;;;6.57;3.20;;;13.60;48.90;;;;;;5053568;28;20247;-73
2021/04/05 12:50:59;;;;;;;9.23;4.27;;;13.70;49.50;;;;;;5052589;28;20715;-72
2021/04/05 12:53:27;;;;;;;7.07;3.87;;;13.80;48.90;;;;;;5044911;28;20202;-72
2021/04/05 12:55:55;;;;;;;8.53;3.70;;;13.80;48.60;;;;;;5043184;28;20292;-73
2021/04/05 12:58:30;;;;;;;11.90;4.10;;;13.90;48.70;;;;;;5051017;28;20233;-72
2021/04/05 13:00:58;;;;;;;10.57;3.80;;;13.90;48.60;;;;;;5051305;28;20229;-72
2021/04/05 13:03:29;;;;;;;7.67;3.77;;;13.90;48.70;;;;;;5049114;28;20747;-74
2021/04/05 13:05:59;;;;;;;9.33;3.80;;;13.90;48.90;;;;;;5049155;28;20296;-73
2021/04/05 13:08:31;;;;;;;9.30;3.50;;;13.90;48.50;;;;;;5047734;28;20289;-73
2021/04/05 13:11:03;;;;;;;10.47;4.07;;;13.80;48.20;;;;;;5047671;28;20297;-72